createdAt,value
2022-08-28T00:00:39.806Z,82.50
2022-08-28T00:03:07.831Z,82.46
2022-08-28T00:05:36.341Z,82.61
2022-08-28T00:08:04.956Z,83.38
2022-08-28T00:10:36.079Z,83.42
2022-08-28T00:13:04.416Z,83.47
2022-08-28T00:15:36.365Z,83.65
2022-08-28T00:18:06.418Z,83.73
2022-08-28T00:20:35.347Z,84.25
2022-08-28T00:23:03.921Z,84.75
2022-08-28T00:25:33.362Z,84.34
2022-08-28T00:28:05.295Z,84.67
2022-08-28T00:30:39.441Z,85.34
2022-08-28T00:33:12.310Z,85.95
2022-08-28T00:35:41.563Z,86.88
2022-08-28T00:38:10.264Z,87.50
2022-08-28T00:40:40.211Z,88.35
2022-08-28T00:43:11.254Z,88.87
2022-08-28T00:45:40.420Z,89.44
2022-08-28T00:48:09.080Z,89.81
2022-08-28T00:50:51.611Z,89.31
2022-08-28T00:53:20.854Z,89.43
2022-08-28T00:55:51.910Z,89.54
2022-08-28T00:58:21.327Z,89.63
2022-08-28T01:00:50.043Z,90.25
2022-08-28T01:03:18.239Z,89.88
2022-08-28T01:05:48.122Z,89.58
2022-08-28T01:08:16.794Z,89.55
2022-08-28T01:10:52.411Z,89.81
2022-08-28T01:13:22.338Z,90.42
2022-08-28T01:15:52.198Z,90.34
2022-08-28T01:18:22.299Z,90.80
2022-08-28T01:20:57.306Z,91.40
2022-08-28T01:23:45.731Z,92.12
2022-08-28T01:26:14.389Z,92.82
2022-08-28T01:28:42.436Z,94.19
2022-08-28T01:31:11.113Z,94.45
2022-08-28T01:33:40.453Z,95.06
2022-08-28T01:36:12.437Z,95.74
2022-08-28T01:38:41.732Z,95.06
2022-08-28T01:41:12.763Z,94.51
2022-08-28T01:43:42.275Z,95.07
2022-08-28T01:46:12.293Z,95.79
2022-08-28T01:48:44.526Z,96.03
2022-08-28T01:51:13.311Z,96.14
2022-08-28T01:53:45.030Z,95.88
2022-08-28T01:56:18.929Z,96.41
2022-08-28T01:58:48.335Z,97.02
2022-08-28T02:01:18.591Z,97.32
2022-08-28T02:03:47.723Z,97.61
2022-08-28T02:06:17.855Z,97.85
2022-08-28T02:08:45.994Z,98.44
2022-08-28T02:11:15.897Z,98.94
2022-08-28T02:13:44.296Z,99.03
2022-08-28T02:16:12.723Z,99.39
2022-08-28T02:18:41.505Z,98.46
2022-08-28T02:21:11.111Z,99.34
2022-08-28T02:23:40.970Z,99.30
2022-08-28T02:26:10.057Z,99.62
2022-08-28T02:28:40.279Z,100.00
2022-08-28T02:31:09.567Z,98.86
2022-08-28T02:33:38.574Z,99.25
2022-08-28T02:36:09.805Z,99.45
2022-08-28T02:38:38.698Z,99.17
2022-08-28T02:41:06.906Z,99.35
2022-08-28T02:43:35.088Z,99.79
2022-08-28T02:46:05.105Z,100.00
2022-08-28T02:48:34.916Z,100.00
2022-08-28T02:51:04.904Z,100.00
2022-08-28T02:53:33.424Z,99.92
2022-08-28T02:56:03.042Z,100.00
2022-08-28T02:58:32.289Z,100.00
2022-08-28T03:01:01.773Z,100.00
2022-08-28T03:03:32.526Z,100.00
2022-08-28T03:06:01.327Z,100.00
2022-08-28T03:08:30.109Z,100.00
2022-08-28T03:10:58.396Z,100.00
2022-08-28T03:13:27.490Z,100.00
2022-08-28T03:15:56.304Z,100.00
2022-08-28T03:18:25.290Z,100.00
2022-08-28T03:20:55.585Z,100.00
2022-08-28T03:23:28.827Z,100.00
2022-08-28T03:26:00.132Z,100.00
2022-08-28T03:28:31.386Z,100.00
2022-08-28T03:30:59.697Z,100.00
2022-08-28T03:33:28.680Z,100.00
2022-08-28T03:35:59.422Z,100.00
2022-08-28T03:38:27.965Z,100.00
2022-08-28T03:40:55.976Z,100.00
2022-08-28T03:43:25.616Z,100.00
2022-08-28T03:45:57.253Z,100.00
2022-08-28T03:48:26.367Z,100.00
2022-08-28T03:50:55.402Z,100.00
2022-08-28T03:53:27.323Z,100.00
2022-08-28T03:55:55.720Z,100.00
2022-08-28T03:58:24.697Z,100.00
2022-08-28T04:00:52.726Z,100.00
2022-08-28T04:03:21.054Z,100.00
2022-08-28T04:05:49.071Z,100.00
2022-08-28T04:08:19.559Z,100.00
2022-08-28T04:10:52.033Z,100.00
2022-08-28T04:13:22.456Z,100.00
2022-08-28T04:15:58.901Z,100.00
2022-08-28T04:18:27.497Z,100.00
2022-08-28T04:21:00.306Z,100.00
2022-08-28T04:23:28.383Z,100.00
2022-08-28T04:25:58.079Z,100.00
2022-08-28T04:28:26.922Z,100.00
2022-08-28T04:30:56.319Z,100.00
2022-08-28T04:33:25.977Z,100.00
2022-08-28T04:35:54.784Z,100.00
2022-08-28T04:38:22.910Z,100.00
2022-08-28T04:40:51.012Z,100.00
2022-08-28T04:43:20.838Z,100.00
2022-08-28T04:45:49.059Z,100.00
2022-08-28T04:48:17.351Z,100.00
2022-08-28T04:50:47.860Z,100.00
2022-08-28T04:53:18.874Z,100.00
2022-08-28T04:55:54.173Z,100.00
2022-08-28T04:58:24.585Z,100.00
2022-08-28T05:00:54.601Z,100.00
2022-08-28T05:03:23.372Z,100.00
2022-08-28T05:05:53.708Z,100.00
2022-08-28T05:08:24.483Z,100.00
2022-08-28T05:10:52.967Z,100.00
2022-08-28T05:13:21.039Z,100.00
2022-08-28T05:15:52.466Z,100.00
2022-08-28T05:18:23.965Z,100.00
2022-08-28T05:20:52.135Z,100.00
2022-08-28T05:23:22.073Z,100.00
2022-08-28T05:25:53.704Z,100.00
2022-08-28T05:28:23.780Z,100.00
2022-08-28T05:30:53.693Z,100.00
2022-08-28T05:33:21.805Z,100.00
2022-08-28T05:35:49.827Z,100.00
2022-08-28T05:38:18.074Z,100.00
2022-08-28T05:40:47.899Z,100.00
2022-08-28T05:43:17.933Z,97.57
2022-08-28T05:45:46.007Z,97.71
2022-08-28T05:48:16.298Z,95.60
2022-08-28T05:50:47.167Z,95.04
2022-08-28T05:53:15.883Z,95.90
2022-08-28T05:55:44.296Z,94.35
2022-08-28T05:58:33.585Z,94.34
2022-08-28T06:01:11.128Z,94.57
2022-08-28T06:03:41.455Z,93.75
2022-08-28T06:06:11.858Z,96.13
2022-08-28T06:08:56.400Z,96.47
2022-08-28T06:11:30.669Z,99.27
2022-08-28T06:14:02.528Z,100.00
2022-08-28T06:16:31.394Z,100.00
2022-08-28T06:19:01.448Z,99.54
2022-08-28T06:21:29.570Z,99.02
2022-08-28T06:23:57.900Z,97.05
2022-08-28T06:26:26.025Z,93.73
2022-08-28T06:28:54.357Z,93.12
2022-08-28T06:31:23.575Z,93.15
2022-08-28T06:33:53.913Z,93.33
2022-08-28T06:36:23.825Z,94.28
2022-08-28T06:38:52.456Z,93.83
2022-08-28T06:41:20.530Z,93.49
2022-08-28T06:43:49.357Z,93.25
2022-08-28T06:46:17.628Z,92.68
2022-08-28T06:48:45.692Z,91.18
2022-08-28T06:51:14.907Z,91.26
2022-08-28T06:53:47.412Z,88.53
2022-08-28T06:56:26.277Z,87.51
2022-08-28T06:58:56.198Z,87.13
2022-08-28T07:01:27.101Z,88.35
2022-08-28T07:03:57.273Z,88.97
2022-08-28T07:06:25.425Z,87.54
2022-08-28T07:08:54.941Z,86.74
2022-08-28T07:11:26.589Z,87.62
2022-08-28T07:13:55.293Z,84.79
2022-08-28T07:16:25.993Z,83.75
2022-08-28T07:18:55.050Z,83.87
2022-08-28T07:21:23.458Z,82.19
2022-08-28T07:23:51.573Z,82.63
2022-08-28T07:26:23.672Z,81.66
2022-08-28T07:29:09.468Z,81.47
2022-08-28T07:31:38.359Z,81.08
2022-08-28T07:34:06.488Z,81.08
2022-08-28T07:36:35.944Z,80.53
2022-08-28T07:39:05.067Z,81.79
2022-08-28T07:41:39.051Z,80.86
2022-08-28T07:44:25.460Z,81.57
2022-08-28T07:46:55.682Z,81.90
2022-08-28T07:49:24.023Z,81.27
2022-08-28T07:51:54.361Z,80.42
2022-08-28T07:54:22.695Z,80.03
2022-08-28T07:56:52.785Z,80.81
2022-08-28T07:59:21.066Z,79.78
2022-08-28T08:01:51.522Z,78.82
2022-08-28T08:04:21.637Z,78.78
2022-08-28T08:06:53.228Z,77.89
2022-08-28T08:09:23.927Z,78.99
2022-08-28T08:11:53.730Z,79.89
2022-08-28T08:14:21.934Z,78.12
2022-08-28T08:16:52.562Z,78.27
2022-08-28T08:19:20.847Z,77.85
2022-08-28T08:21:53.207Z,78.62
2022-08-28T08:24:26.262Z,76.29
2022-08-28T08:27:00.366Z,77.20
2022-08-28T08:29:31.413Z,74.84
2022-08-28T08:32:05.839Z,72.95
2022-08-28T08:34:36.560Z,70.11
2022-08-28T08:37:05.928Z,69.88
2022-08-28T08:39:34.650Z,69.56
2022-08-28T08:42:07.996Z,70.38
2022-08-28T08:44:40.403Z,70.33
2022-08-28T08:47:14.813Z,69.17
2022-08-28T08:49:49.850Z,67.92
2022-08-28T08:52:43.029Z,68.21
2022-08-28T08:55:31.486Z,67.07
2022-08-28T08:58:07.707Z,66.67
2022-08-28T09:00:54.789Z,66.74
2022-08-28T09:03:27.552Z,66.87
2022-08-28T09:05:59.161Z,68.64
2022-08-28T09:08:32.055Z,65.58
2022-08-28T09:11:08.241Z,65.99
2022-08-28T09:13:49.947Z,63.23
2022-08-28T09:16:28.114Z,61.69
2022-08-28T09:18:58.364Z,61.88
2022-08-28T09:21:29.455Z,62.22
2022-08-28T09:24:05.836Z,62.90
2022-08-28T09:26:35.769Z,62.64
2022-08-28T09:29:08.485Z,64.32
2022-08-28T09:31:39.653Z,62.49
2022-08-28T09:34:27.565Z,60.75
2022-08-28T09:36:58.664Z,59.85
2022-08-28T09:39:28.884Z,60.20
2022-08-28T09:42:15.626Z,60.03
2022-08-28T09:44:58.028Z,59.66
2022-08-28T09:47:48.755Z,61.22
2022-08-28T09:50:25.512Z,62.57
2022-08-28T09:52:55.786Z,62.03
2022-08-28T09:55:28.078Z,59.92
2022-08-28T09:57:56.736Z,59.43
2022-08-28T10:00:26.533Z,58.96
2022-08-28T10:03:07.528Z,58.59
2022-08-28T10:05:41.634Z,60.00
2022-08-28T10:08:25.205Z,58.43
2022-08-28T10:10:56.865Z,58.88
2022-08-28T10:13:31.362Z,58.95
2022-08-28T10:16:21.383Z,59.39
2022-08-28T10:18:57.766Z,55.14
2022-08-28T10:21:32.250Z,53.93
2022-08-28T10:24:15.250Z,55.65
2022-08-28T10:27:00.457Z,54.47
2022-08-28T10:29:38.073Z,54.24
2022-08-28T10:32:25.160Z,55.99
2022-08-28T10:35:02.145Z,56.57
2022-08-28T10:37:42.644Z,54.38
2022-08-28T10:40:17.018Z,54.33
2022-08-28T10:42:49.909Z,53.52
2022-08-28T10:45:21.259Z,54.53
2022-08-28T10:47:56.633Z,53.08
2022-08-28T10:50:30.030Z,54.62
2022-08-28T10:53:02.780Z,53.40
2022-08-28T10:55:37.096Z,52.48
2022-08-28T10:58:25.126Z,54.49
2022-08-28T11:00:56.657Z,54.78
2022-08-28T11:03:36.697Z,55.04
2022-08-28T11:06:11.368Z,52.58
2022-08-28T11:08:40.801Z,53.35
2022-08-28T11:11:14.831Z,54.33
2022-08-28T11:13:51.506Z,53.63
2022-08-28T11:16:23.986Z,51.10
2022-08-28T11:19:25.128Z,51.70
2022-08-28T11:21:56.027Z,50.08
2022-08-28T11:24:43.571Z,50.90
2022-08-28T11:27:25.484Z,49.66
2022-08-28T11:30:31.202Z,51.22
2022-08-28T11:33:31.722Z,52.11
2022-08-28T11:36:01.227Z,52.92
2022-08-28T11:39:13.975Z,52.87
2022-08-28T11:42:22.913Z,50.87
2022-08-28T11:44:51.506Z,50.59
2022-08-28T11:47:58.476Z,51.06
2022-08-28T11:50:30.962Z,53.23
2022-08-28T11:53:27.290Z,50.17
2022-08-28T11:56:10.405Z,52.32
2022-08-28T11:58:45.959Z,49.78
2022-08-28T12:01:27.244Z,48.72
2022-08-28T12:03:58.246Z,50.15
2022-08-28T12:06:55.560Z,47.32
2022-08-28T12:09:43.574Z,48.44
2022-08-28T12:12:51.273Z,48.04
2022-08-28T12:15:39.402Z,49.13
2022-08-28T12:18:14.451Z,48.41
2022-08-28T12:20:59.490Z,47.53
2022-08-28T12:23:43.776Z,47.07
2022-08-28T12:26:23.206Z,47.83
2022-08-28T12:28:53.701Z,45.69
2022-08-28T12:32:04.561Z,46.90
2022-08-28T12:34:42.252Z,46.51
2022-08-28T12:37:26.160Z,46.05
2022-08-28T12:39:56.703Z,45.88
2022-08-28T12:42:31.729Z,45.27
2022-08-28T12:45:05.831Z,46.08
2022-08-28T12:47:35.548Z,45.61
2022-08-28T12:50:21.021Z,46.06
2022-08-28T12:52:51.435Z,46.26
2022-08-28T12:55:24.306Z,48.21
2022-08-28T12:57:54.954Z,48.23
2022-08-28T13:00:25.812Z,47.01
2022-08-28T13:02:57.089Z,46.71
2022-08-28T13:05:33.525Z,46.92
2022-08-28T13:08:06.661Z,44.42
2022-08-28T13:10:37.727Z,44.52
2022-08-28T13:13:11.027Z,43.64
2022-08-28T13:15:57.972Z,44.56
2022-08-28T13:18:49.858Z,43.61
2022-08-28T13:21:33.688Z,47.08
2022-08-28T13:24:27.523Z,45.01
2022-08-28T13:27:04.849Z,44.14
2022-08-28T13:29:34.677Z,44.29
2022-08-28T13:32:05.253Z,43.95
2022-08-28T13:34:35.006Z,44.17
2022-08-28T13:37:07.137Z,43.64
2022-08-28T13:39:42.632Z,45.12
2022-08-28T13:42:13.980Z,44.34
2022-08-28T13:44:50.749Z,43.85
2022-08-28T13:47:19.081Z,42.43
2022-08-28T13:49:48.242Z,42.62
2022-08-28T13:52:16.435Z,42.90
2022-08-28T13:54:45.254Z,43.18
2022-08-28T13:57:14.525Z,42.60
2022-08-28T13:59:44.230Z,42.69
2022-08-28T14:02:31.730Z,42.16
2022-08-28T14:05:00.197Z,42.12
2022-08-28T14:07:29.412Z,42.62
2022-08-28T14:09:57.624Z,42.69
2022-08-28T14:12:30.692Z,42.88
2022-08-28T14:15:03.743Z,43.21
2022-08-28T14:17:31.719Z,43.24
2022-08-28T14:20:00.857Z,42.45
2022-08-28T14:22:29.902Z,42.34
2022-08-28T14:24:58.177Z,41.39
2022-08-28T14:27:26.259Z,41.70
2022-08-28T14:29:54.411Z,41.93
2022-08-28T14:32:24.296Z,42.04
2022-08-28T14:34:52.280Z,41.23
2022-08-28T14:37:21.611Z,41.60
2022-08-28T14:39:50.548Z,42.13
2022-08-28T14:42:19.404Z,41.97
2022-08-28T14:44:47.598Z,42.23
2022-08-28T14:47:16.026Z,41.88
2022-08-28T14:49:45.526Z,42.30
2022-08-28T14:52:13.617Z,42.74
2022-08-28T14:54:41.636Z,43.29
2022-08-28T14:57:11.762Z,42.86
2022-08-28T14:59:39.664Z,43.26
2022-08-28T15:02:07.707Z,43.29
2022-08-28T15:04:38.293Z,42.90
2022-08-28T15:07:10.878Z,42.13
2022-08-28T15:09:42.240Z,42.06
2022-08-28T15:12:11.807Z,41.89
2022-08-28T15:14:39.976Z,41.78
2022-08-28T15:17:08.972Z,41.45
2022-08-28T15:19:36.987Z,41.42
2022-08-28T15:22:05.467Z,41.01
2022-08-28T15:24:35.989Z,41.34
2022-08-28T15:27:04.277Z,41.34
2022-08-28T15:29:32.317Z,41.84
2022-08-28T15:32:01.317Z,41.95
2022-08-28T15:34:29.940Z,42.28
2022-08-28T15:36:59.168Z,41.73
2022-08-28T15:39:45.886Z,41.16
2022-08-28T15:42:16.304Z,41.16
2022-08-28T15:44:44.674Z,41.88
2022-08-28T15:47:14.862Z,41.85
2022-08-28T15:49:48.571Z,41.73
2022-08-28T15:52:19.426Z,41.57
2022-08-28T15:54:47.574Z,41.22
2022-08-28T15:57:17.076Z,41.29
2022-08-28T15:59:49.409Z,41.48
2022-08-28T16:02:20.342Z,41.51
2022-08-28T16:04:48.715Z,41.13
2022-08-28T16:07:17.510Z,41.87
2022-08-28T16:09:45.920Z,41.88
2022-08-28T16:12:14.561Z,41.68
2022-08-28T16:14:44.561Z,41.79
2022-08-28T16:17:12.817Z,42.59
2022-08-28T16:19:41.311Z,43.08
2022-08-28T16:22:10.507Z,42.59
2022-08-28T16:24:38.969Z,42.46
2022-08-28T16:29:57.320Z,42.30
2022-08-28T16:32:25.677Z,42.51
2022-08-28T16:34:54.382Z,42.04
2022-08-28T16:35:49.245Z,41.84
2022-08-28T16:37:23.264Z,41.83
2022-08-28T16:39:54.866Z,41.51
2022-08-28T16:42:23.668Z,42.00
2022-08-28T16:44:51.675Z,42.43
2022-08-28T16:47:21.056Z,42.73
2022-08-28T16:49:49.364Z,42.28
2022-08-28T16:52:17.546Z,42.40
2022-08-28T16:54:48.282Z,42.63
2022-08-28T16:57:17.317Z,43.04
2022-08-28T16:59:45.382Z,43.21
2022-08-28T17:02:13.577Z,43.05
2022-08-28T17:04:43.329Z,43.44
2022-08-28T17:07:11.405Z,43.45
2022-08-28T17:09:39.516Z,43.85
2022-08-28T17:12:08.135Z,43.84
2022-08-28T17:14:40.134Z,44.22
2022-08-28T17:17:08.291Z,44.71
2022-08-28T17:19:38.142Z,44.68
2022-08-28T17:22:27.330Z,44.90
2022-08-28T17:24:56.180Z,45.35
2022-08-28T17:27:24.924Z,45.17
2022-08-28T17:29:53.632Z,45.29
2022-08-28T17:32:21.988Z,45.29
2022-08-28T17:34:50.021Z,45.45
2022-08-28T17:37:20.710Z,45.84
2022-08-28T17:39:49.047Z,45.47
2022-08-28T17:42:17.080Z,45.43
2022-08-28T17:44:45.250Z,45.33
2022-08-28T17:47:13.453Z,45.78
2022-08-28T17:49:41.705Z,45.66
2022-08-28T17:52:09.766Z,45.79
2022-08-28T17:54:39.487Z,46.06
2022-08-28T17:57:07.516Z,46.50
2022-08-28T17:59:35.850Z,46.76
2022-08-28T18:02:04.569Z,47.49
2022-08-28T18:04:32.929Z,47.29
2022-08-28T18:07:01.902Z,48.16
2022-08-28T18:09:29.984Z,48.84
2022-08-28T18:11:59.409Z,48.90
2022-08-28T18:14:27.826Z,49.98
2022-08-28T18:16:56.571Z,50.79
2022-08-28T18:19:25.320Z,51.78
2022-08-28T18:21:53.608Z,51.84
2022-08-28T18:24:21.769Z,52.97
2022-08-28T18:26:50.076Z,53.19
2022-08-28T18:29:19.587Z,54.32
2022-08-28T18:31:47.833Z,54.22
2022-08-28T18:34:16.309Z,56.55
2022-08-28T18:36:44.828Z,57.10
2022-08-28T18:39:13.019Z,57.97
2022-08-28T18:41:44.469Z,58.62
2022-08-28T18:44:14.457Z,59.65
2022-08-28T18:46:44.767Z,60.08
2022-08-28T18:49:13.686Z,60.61
2022-08-28T18:51:43.428Z,61.04
2022-08-28T18:54:13.800Z,61.79
2022-08-28T18:56:44.731Z,61.63
2022-08-28T18:59:13.016Z,62.43
2022-08-28T19:01:41.119Z,62.50
2022-08-28T19:04:10.599Z,62.97
2022-08-28T19:06:38.581Z,62.69
2022-08-28T19:09:06.773Z,63.25
2022-08-28T19:11:36.171Z,62.69
2022-08-28T19:14:04.747Z,62.94
2022-08-28T19:16:33.461Z,62.82
2022-08-28T19:19:02.527Z,63.08
2022-08-28T19:21:31.896Z,64.04
2022-08-28T19:23:59.941Z,64.26
2022-08-28T19:26:28.709Z,64.00
2022-08-28T19:28:57.547Z,64.24
2022-08-28T19:31:26.994Z,64.79
2022-08-28T19:33:58.678Z,64.53
2022-08-28T19:36:31.269Z,65.47
2022-08-28T19:38:59.425Z,65.53
2022-08-28T19:41:27.843Z,65.82
2022-08-28T19:43:55.985Z,65.66
2022-08-28T19:46:24.093Z,65.04
2022-08-28T19:48:55.567Z,64.83
2022-08-28T19:51:34.865Z,65.19
2022-08-28T19:54:14.999Z,65.50
2022-08-28T19:56:43.244Z,66.06
2022-08-28T19:59:26.934Z,65.16
2022-08-28T20:02:04.383Z,65.48
2022-08-28T20:04:42.387Z,66.20
2022-08-28T20:07:12.997Z,65.94
2022-08-28T20:09:45.723Z,66.27
2022-08-28T20:12:14.572Z,66.07
2022-08-28T20:14:47.156Z,66.09
2022-08-28T20:17:26.180Z,66.03
2022-08-28T20:20:08.866Z,65.65
2022-08-28T20:22:46.521Z,66.15
2022-08-28T20:25:18.163Z,65.76
2022-08-28T20:27:46.322Z,65.68
2022-08-28T20:30:15.018Z,65.69
2022-08-28T20:32:43.029Z,65.63
2022-08-28T20:35:13.615Z,66.17
2022-08-28T20:37:45.217Z,66.57
2022-08-28T20:40:15.908Z,66.70
2022-08-28T20:42:45.232Z,66.70
2022-08-28T20:45:15.148Z,66.44
2022-08-28T20:47:43.343Z,66.29
2022-08-28T20:50:11.929Z,66.75
2022-08-28T20:52:40.167Z,66.62
2022-08-28T20:55:09.957Z,66.86
2022-08-28T20:57:38.087Z,66.41
2022-08-28T21:00:10.217Z,67.43
2022-08-28T21:02:38.803Z,67.72
2022-08-28T21:05:07.971Z,68.10
2022-08-28T21:07:36.249Z,68.75
2022-08-28T21:10:07.972Z,68.51
2022-08-28T21:12:37.314Z,68.26
2022-08-28T21:15:08.655Z,68.75
2022-08-28T21:17:36.655Z,69.14
2022-08-28T21:20:10.319Z,69.85
2022-08-28T21:22:40.135Z,69.93
2022-08-28T21:25:10.637Z,70.18
2022-08-28T21:27:39.164Z,70.49
2022-08-28T21:30:11.839Z,70.62
2022-08-28T21:32:40.048Z,70.82
2022-08-28T21:35:12.190Z,70.96
2022-08-28T21:37:41.477Z,71.88
2022-08-28T21:40:13.020Z,72.95
2022-08-28T21:42:41.480Z,74.76
2022-08-28T21:45:12.716Z,74.99
2022-08-28T21:47:41.520Z,75.25
2022-08-28T21:50:11.546Z,76.29
2022-08-28T21:52:39.578Z,76.57
2022-08-28T21:55:10.802Z,77.33
2022-08-28T21:57:39.395Z,78.52
2022-08-28T22:00:13.011Z,78.71
2022-08-28T22:02:41.116Z,79.66
2022-08-28T22:05:09.872Z,79.57
2022-08-28T22:07:37.911Z,79.90
2022-08-28T22:10:06.429Z,79.76
2022-08-28T22:12:34.536Z,80.56
2022-08-28T22:15:03.040Z,80.04
2022-08-28T22:17:32.508Z,80.63
2022-08-28T22:20:00.587Z,81.31
2022-08-28T22:22:45.915Z,81.35
2022-08-28T22:25:14.158Z,81.99
2022-08-28T22:27:42.292Z,82.38
2022-08-28T22:30:11.389Z,82.69
2022-08-28T22:32:40.800Z,82.28
2022-08-28T22:35:10.613Z,82.83
2022-08-28T22:37:38.720Z,83.38
2022-08-28T22:40:13.227Z,83.88
2022-08-28T22:42:41.731Z,83.27
2022-08-28T22:45:10.353Z,83.35
2022-08-28T22:47:38.480Z,84.29
2022-08-28T22:50:09.226Z,85.24
2022-08-28T22:52:38.446Z,85.77
2022-08-28T22:55:10.420Z,86.27
2022-08-28T22:57:40.594Z,86.62
2022-08-28T23:00:11.261Z,86.74
2022-08-28T23:02:40.277Z,86.57
2022-08-28T23:05:10.107Z,86.44
2022-08-28T23:07:38.604Z,86.66
2022-08-28T23:10:08.718Z,86.81
2022-08-28T23:12:36.848Z,86.82
2022-08-28T23:15:06.821Z,87.17
2022-08-28T23:17:35.114Z,86.93
2022-08-28T23:20:03.809Z,86.65
2022-08-28T23:22:33.114Z,87.10
2022-08-28T23:25:03.272Z,87.19
2022-08-28T23:27:38.458Z,90.22
2022-08-28T23:30:07.977Z,90.98
2022-08-28T23:32:35.916Z,90.60
2022-08-28T23:35:07.309Z,90.35
2022-08-28T23:37:37.872Z,89.91
2022-08-28T23:40:08.103Z,89.33
2022-08-28T23:42:36.060Z,88.59
2022-08-28T23:45:05.218Z,88.31
2022-08-28T23:47:33.277Z,87.93
2022-08-28T23:50:01.631Z,88.52
2022-08-28T23:52:30.698Z,88.70
2022-08-28T23:55:01.209Z,88.81
2022-08-28T23:57:29.235Z,89.27
2022-08-28T23:59:57.139Z,90.41
